sensor_id;sensor_type;location;lat;lon;timestamp;temperature;humidity
19279;DHT22;9773;47.062;15.446;2023-04-01T00:01:00;9.20;99.90
19279;DHT22;9773;47.062;15.446;2023-04-01T00:03:26;9.20;99.90
19279;DHT22;9773;47.062;15.446;2023-04-01T00:05:53;9.10;99.90
19279;DHT22;9773;47.062;15.446;2023-04-01T00:08:19;9.10;99.90
19279;DHT22;9773;47.062;15.446;2023-04-01T00:10:45;9.00;99.90
19279;DHT22;9773;47.062;15.446;2023-04-01T00:13:11;9.10;99.90
19279;DHT22;9773;47.062;15.446;2023-04-01T00:15:37;9.10;99.90
19279;DHT22;9773;47.062;15.446;2023-04-01T00:18:03;9.10;99.90
19279;DHT22;9773;47.062;15.446;2023-04-01T00:20:30;9.10;99.90
19279;DHT22;9773;47.062;15.446;2023-04-01T00:22:56;9.00;99.90
19279;DHT22;9773;47.062;15.446;2023-04-01T00:25:22;9.10;99.90
19279;DHT22;9773;47.062;15.446;2023-04-01T00:27:48;9.10;99.90
19279;DHT22;9773;47.062;15.446;2023-04-01T00:30:15;9.10;99.90
19279;DHT22;9773;47.062;15.446;2023-04-01T00:32:41;9.10;99.90
19279;DHT22;9773;47.062;15.446;2023-04-01T00:35:07;9.10;99.90
19279;DHT22;9773;47.062;15.446;2023-04-01T00:37:35;9.00;99.90
19279;DHT22;9773;47.062;15.446;2023-04-01T00:40:03;9.00;99.90
19279;DHT22;9773;47.062;15.446;2023-04-01T00:42:31;9.00;99.90
19279;DHT22;9773;47.062;15.446;2023-04-01T00:44:57;9.00;99.90
19279;DHT22;9773;47.062;15.446;2023-04-01T00:47:24;9.10;99.90
19279;DHT22;9773;47.062;15.446;2023-04-01T00:49:54;9.10;99.90
19279;DHT22;9773;47.062;15.446;2023-04-01T00:52:23;9.10;99.90
19279;DHT22;9773;47.062;15.446;2023-04-01T00:54:56;9.00;99.90
19279;DHT22;9773;47.062;15.446;2023-04-01T00:57:31;9.00;99.90
19279;DHT22;9773;47.062;15.446;2023-04-01T00:59:58;8.90;99.90
19279;DHT22;9773;47.062;15.446;2023-04-01T01:02:24;8.90;99.90
19279;DHT22;9773;47.062;15.446;2023-04-01T01:04:50;9.00;99.90
19279;DHT22;9773;47.062;15.446;2023-04-01T01:10:14;9.00;99.90
19279;DHT22;9773;47.062;15.446;2023-04-01T01:13:01;8.90;99.90
19279;DHT22;9773;47.062;15.446;2023-04-01T01:15:36;8.80;99.90
19279;DHT22;9773;47.062;15.446;2023-04-01T01:24:09;8.80;99.90
19279;DHT22;9773;47.062;15.446;2023-04-01T01:35:24;8.60;99.90
19279;DHT22;9773;47.062;15.446;2023-04-01T01:37:56;8.70;99.90
19279;DHT22;9773;47.062;15.446;2023-04-01T01:40:24;8.70;99.90
19279;DHT22;9773;47.062;15.446;2023-04-01T01:42:56;8.70;99.90
19279;DHT22;9773;47.062;15.446;2023-04-01T01:45:26;8.70;99.90
19279;DHT22;9773;47.062;15.446;2023-04-01T01:47:52;8.70;99.90
19279;DHT22;9773;47.062;15.446;2023-04-01T01:50:20;8.70;99.90
19279;DHT22;9773;47.062;15.446;2023-04-01T01:52:46;8.70;99.90
19279;DHT22;9773;47.062;15.446;2023-04-01T01:57:51;8.70;99.90
19279;DHT22;9773;47.062;15.446;2023-04-01T02:00:17;8.70;99.90
19279;DHT22;9773;47.062;15.446;2023-04-01T02:02:46;8.80;99.90
19279;DHT22;9773;47.062;15.446;2023-04-01T02:05:17;8.80;99.90
19279;DHT22;9773;47.062;15.446;2023-04-01T02:07:48;8.80;99.90
19279;DHT22;9773;47.062;15.446;2023-04-01T02:10:15;8.70;99.90
19279;DHT22;9773;47.062;15.446;2023-04-01T02:12:43;8.70;99.90
19279;DHT22;9773;47.062;15.446;2023-04-01T02:15:12;8.70;99.90
19279;DHT22;9773;47.062;15.446;2023-04-01T02:17:43;8.70;99.90
19279;DHT22;9773;47.062;15.446;2023-04-01T02:22:46;8.70;99.90
19279;DHT22;9773;47.062;15.446;2023-04-01T02:25:16;8.80;99.90
19279;DHT22;9773;47.062;15.446;2023-04-01T02:27:44;8.90;99.90
19279;DHT22;9773;47.062;15.446;2023-04-01T02:30:12;8.90;99.90
19279;DHT22;9773;47.062;15.446;2023-04-01T02:32:39;9.00;99.90
19279;DHT22;9773;47.062;15.446;2023-04-01T02:35:10;8.90;99.90
19279;DHT22;9773;47.062;15.446;2023-04-01T02:37:38;8.90;99.90
19279;DHT22;9773;47.062;15.446;2023-04-01T02:40:08;8.90;99.90
19279;DHT22;9773;47.062;15.446;2023-04-01T02:42:35;8.90;99.90
19279;DHT22;9773;47.062;15.446;2023-04-01T02:45:01;8.80;99.90
19279;DHT22;9773;47.062;15.446;2023-04-01T02:47:27;8.70;99.90
19279;DHT22;9773;47.062;15.446;2023-04-01T02:49:52;8.80;99.90
19279;DHT22;9773;47.062;15.446;2023-04-01T02:52:28;8.80;99.90
19279;DHT22;9773;47.062;15.446;2023-04-01T02:54:55;8.80;99.90
19279;DHT22;9773;47.062;15.446;2023-04-01T02:57:21;8.80;99.90
19279;DHT22;9773;47.062;15.446;2023-04-01T02:59:47;8.90;99.90
19279;DHT22;9773;47.062;15.446;2023-04-01T03:02:13;8.90;99.90
19279;DHT22;9773;47.062;15.446;2023-04-01T03:04:39;9.00;99.90
19279;DHT22;9773;47.062;15.446;2023-04-01T03:07:04;8.90;99.90
19279;DHT22;9773;47.062;15.446;2023-04-01T03:09:30;8.80;99.90
19279;DHT22;9773;47.062;15.446;2023-04-01T03:11:56;8.90;99.90
19279;DHT22;9773;47.062;15.446;2023-04-01T03:14:22;8.70;99.90
19279;DHT22;9773;47.062;15.446;2023-04-01T03:16:48;8.70;99.90
19279;DHT22;9773;47.062;15.446;2023-04-01T03:19:13;8.80;99.90
19279;DHT22;9773;47.062;15.446;2023-04-01T03:21:40;8.80;99.90
19279;DHT22;9773;47.062;15.446;2023-04-01T03:24:06;8.80;99.90
19279;DHT22;9773;47.062;15.446;2023-04-01T03:26:32;8.80;99.90
19279;DHT22;9773;47.062;15.446;2023-04-01T03:28:57;8.80;99.90
19279;DHT22;9773;47.062;15.446;2023-04-01T03:31:23;8.80;99.90
19279;DHT22;9773;47.062;15.446;2023-04-01T03:33:50;8.80;99.90
19279;DHT22;9773;47.062;15.446;2023-04-01T03:36:15;8.90;99.90
19279;DHT22;9773;47.062;15.446;2023-04-01T03:38:42;8.80;99.90
19279;DHT22;9773;47.062;15.446;2023-04-01T03:41:14;8.70;99.90
19279;DHT22;9773;47.062;15.446;2023-04-01T03:43:40;8.80;99.90
19279;DHT22;9773;47.062;15.446;2023-04-01T03:46:05;8.90;99.90
19279;DHT22;9773;47.062;15.446;2023-04-01T03:48:31;8.90;99.90
19279;DHT22;9773;47.062;15.446;2023-04-01T03:50:57;9.00;99.90
19279;DHT22;9773;47.062;15.446;2023-04-01T03:53:23;9.00;99.90
19279;DHT22;9773;47.062;15.446;2023-04-01T03:55:48;9.00;99.90
19279;DHT22;9773;47.062;15.446;2023-04-01T03:58:16;9.00;99.90
19279;DHT22;9773;47.062;15.446;2023-04-01T04:00:42;9.00;99.90
19279;DHT22;9773;47.062;15.446;2023-04-01T04:03:08;9.00;99.90
19279;DHT22;9773;47.062;15.446;2023-04-01T04:05:34;9.00;99.90
19279;DHT22;9773;47.062;15.446;2023-04-01T04:08:00;9.00;99.90
19279;DHT22;9773;47.062;15.446;2023-04-01T04:10:26;9.00;99.90
19279;DHT22;9773;47.062;15.446;2023-04-01T04:12:52;8.90;99.90
19279;DHT22;9773;47.062;15.446;2023-04-01T04:15:18;8.80;99.90
19279;DHT22;9773;47.062;15.446;2023-04-01T04:17:45;8.80;99.90
19279;DHT22;9773;47.062;15.446;2023-04-01T04:20:11;8.90;99.90
19279;DHT22;9773;47.062;15.446;2023-04-01T04:22:36;8.90;99.90
19279;DHT22;9773;47.062;15.446;2023-04-01T04:25:02;8.80;99.90
19279;DHT22;9773;47.062;15.446;2023-04-01T04:27:28;8.80;99.90
19279;DHT22;9773;47.062;15.446;2023-04-01T04:29:54;8.70;99.90
19279;DHT22;9773;47.062;15.446;2023-04-01T04:32:20;8.70;99.90
19279;DHT22;9773;47.062;15.446;2023-04-01T04:34:45;8.70;99.90
19279;DHT22;9773;47.062;15.446;2023-04-01T04:37:11;8.60;99.90
19279;DHT22;9773;47.062;15.446;2023-04-01T04:39:37;8.60;99.90
19279;DHT22;9773;47.062;15.446;2023-04-01T04:42:03;8.50;99.90
19279;DHT22;9773;47.062;15.446;2023-04-01T04:44:28;8.60;99.90
19279;DHT22;9773;47.062;15.446;2023-04-01T04:46:54;8.50;99.90
19279;DHT22;9773;47.062;15.446;2023-04-01T04:49:20;8.50;99.90
19279;DHT22;9773;47.062;15.446;2023-04-01T04:51:46;8.40;99.90
19279;DHT22;9773;47.062;15.446;2023-04-01T04:54:11;8.50;99.90
19279;DHT22;9773;47.062;15.446;2023-04-01T04:56:37;8.50;99.90
19279;DHT22;9773;47.062;15.446;2023-04-01T04:59:03;8.50;99.90
19279;DHT22;9773;47.062;15.446;2023-04-01T05:01:29;8.50;99.90
19279;DHT22;9773;47.062;15.446;2023-04-01T05:03:54;8.50;99.90
19279;DHT22;9773;47.062;15.446;2023-04-01T05:06:20;8.50;99.90
19279;DHT22;9773;47.062;15.446;2023-04-01T05:08:46;8.50;99.90
19279;DHT22;9773;47.062;15.446;2023-04-01T05:11:18;8.50;99.90
19279;DHT22;9773;47.062;15.446;2023-04-01T05:13:44;8.50;99.90
19279;DHT22;9773;47.062;15.446;2023-04-01T05:16:20;8.50;99.90
19279;DHT22;9773;47.062;15.446;2023-04-01T05:18:47;8.50;99.90
19279;DHT22;9773;47.062;15.446;2023-04-01T05:21:14;8.50;99.90
19279;DHT22;9773;47.062;15.446;2023-04-01T05:23:40;8.60;99.90
19279;DHT22;9773;47.062;15.446;2023-04-01T05:26:09;8.50;99.90
19279;DHT22;9773;47.062;15.446;2023-04-01T05:28:35;8.70;99.90
19279;DHT22;9773;47.062;15.446;2023-04-01T05:31:02;8.70;99.90
19279;DHT22;9773;47.062;15.446;2023-04-01T05:33:29;8.80;99.90
19279;DHT22;9773;47.062;15.446;2023-04-01T05:35:55;8.80;99.90
19279;DHT22;9773;47.062;15.446;2023-04-01T05:38:21;8.80;99.90
19279;DHT22;9773;47.062;15.446;2023-04-01T05:40:47;8.90;99.90
19279;DHT22;9773;47.062;15.446;2023-04-01T05:43:13;8.90;99.90
19279;DHT22;9773;47.062;15.446;2023-04-01T05:45:38;8.90;99.90
19279;DHT22;9773;47.062;15.446;2023-04-01T05:48:04;8.90;99.90
19279;DHT22;9773;47.062;15.446;2023-04-01T05:50:30;8.90;99.90
19279;DHT22;9773;47.062;15.446;2023-04-01T05:52:56;8.90;99.90
19279;DHT22;9773;47.062;15.446;2023-04-01T05:55:22;8.80;99.90
19279;DHT22;9773;47.062;15.446;2023-04-01T05:57:48;8.90;99.90
19279;DHT22;9773;47.062;15.446;2023-04-01T06:00:15;8.90;99.90
19279;DHT22;9773;47.062;15.446;2023-04-01T06:02:41;9.00;99.90
19279;DHT22;9773;47.062;15.446;2023-04-01T06:07:39;9.10;99.90
19279;DHT22;9773;47.062;15.446;2023-04-01T06:10:20;9.20;99.90
19279;DHT22;9773;47.062;15.446;2023-04-01T06:15:29;9.30;99.90
19279;DHT22;9773;47.062;15.446;2023-04-01T06:23:56;9.20;99.90
19279;DHT22;9773;47.062;15.446;2023-04-01T06:54:00;9.80;99.90
19279;DHT22;9773;47.062;15.446;2023-04-01T06:56:28;9.90;99.90
19279;DHT22;9773;47.062;15.446;2023-04-01T06:59:03;10.00;99.90
19279;DHT22;9773;47.062;15.446;2023-04-01T07:01:38;10.00;99.90
19279;DHT22;9773;47.062;15.446;2023-04-01T07:09:13;10.10;99.90
19279;DHT22;9773;47.062;15.446;2023-04-01T07:11:42;10.10;99.90
19279;DHT22;9773;47.062;15.446;2023-04-01T07:14:20;10.20;99.90
19279;DHT22;9773;47.062;15.446;2023-04-01T07:16:58;10.30;99.90
19279;DHT22;9773;47.062;15.446;2023-04-01T07:19:53;10.50;99.90
19279;DHT22;9773;47.062;15.446;2023-04-01T07:22:34;10.70;99.90
19279;DHT22;9773;47.062;15.446;2023-04-01T07:25:29;10.90;99.90
19279;DHT22;9773;47.062;15.446;2023-04-01T07:28:04;11.00;99.90
19279;DHT22;9773;47.062;15.446;2023-04-01T07:33:25;11.40;99.90
19279;DHT22;9773;47.062;15.446;2023-04-01T07:36:12;11.30;99.90
19279;DHT22;9773;47.062;15.446;2023-04-01T07:47:16;11.20;99.90
19279;DHT22;9773;47.062;15.446;2023-04-01T07:50:06;11.30;99.90
19279;DHT22;9773;47.062;15.446;2023-04-01T07:52:37;11.40;99.90
19279;DHT22;9773;47.062;15.446;2023-04-01T08:00:48;12.10;99.90
19279;DHT22;9773;47.062;15.446;2023-04-01T08:03:31;12.30;99.90
19279;DHT22;9773;47.062;15.446;2023-04-01T08:06:07;12.60;99.90
19279;DHT22;9773;47.062;15.446;2023-04-01T08:17:04;13.10;99.90
19279;DHT22;9773;47.062;15.446;2023-04-01T08:22:42;13.50;99.90
19279;DHT22;9773;47.062;15.446;2023-04-01T08:25:21;13.70;99.90
19279;DHT22;9773;47.062;15.446;2023-04-01T08:28:08;13.90;99.90
19279;DHT22;9773;47.062;15.446;2023-04-01T08:33:15;14.30;99.90
19279;DHT22;9773;47.062;15.446;2023-04-01T08:36:15;14.40;99.90
19279;DHT22;9773;47.062;15.446;2023-04-01T08:44:24;14.80;99.90
19279;DHT22;9773;47.062;15.446;2023-04-01T08:50:04;14.90;99.90
19279;DHT22;9773;47.062;15.446;2023-04-01T08:52:37;14.90;99.90
19279;DHT22;9773;47.062;15.446;2023-04-01T08:55:31;14.90;99.70
19279;DHT22;9773;47.062;15.446;2023-04-01T09:00:57;15.10;99.90
19279;DHT22;9773;47.062;15.446;2023-04-01T09:06:40;15.10;99.90
19279;DHT22;9773;47.062;15.446;2023-04-01T09:20:52;15.60;99.50
19279;DHT22;9773;47.062;15.446;2023-04-01T09:23:41;15.70;99.40
19279;DHT22;9773;47.062;15.446;2023-04-01T09:29:10;15.70;98.80
19279;DHT22;9773;47.062;15.446;2023-04-01T09:34:49;16.10;98.90
19279;DHT22;9773;47.062;15.446;2023-04-01T09:40:09;16.30;98.50
19279;DHT22;9773;47.062;15.446;2023-04-01T09:42:45;16.30;98.70
19279;DHT22;9773;47.062;15.446;2023-04-01T09:45:23;16.60;98.80
19279;DHT22;9773;47.062;15.446;2023-04-01T09:51:16;16.50;97.80
19279;DHT22;9773;47.062;15.446;2023-04-01T10:22:41;16.50;95.80
19279;DHT22;9773;47.062;15.446;2023-04-01T10:30:52;16.40;91.20
19279;DHT22;9773;47.062;15.446;2023-04-01T11:25:09;16.10;84.60
19279;DHT22;9773;47.062;15.446;2023-04-01T11:49:50;16.70;82.70
19279;DHT22;9773;47.062;15.446;2023-04-01T12:44:16;16.70;79.50
19279;DHT22;9773;47.062;15.446;2023-04-01T12:52:09;17.00;78.20
19279;DHT22;9773;47.062;15.446;2023-04-01T13:14:43;16.70;75.80
19279;DHT22;9773;47.062;15.446;2023-04-01T13:17:20;16.60;76.50
19279;DHT22;9773;47.062;15.446;2023-04-01T13:28:37;16.90;74.80
19279;DHT22;9773;47.062;15.446;2023-04-01T13:33:46;17.00;74.50
19279;DHT22;9773;47.062;15.446;2023-04-01T13:44:36;16.90;72.80
19279;DHT22;9773;47.062;15.446;2023-04-01T13:47:23;16.80;72.50
19279;DHT22;9773;47.062;15.446;2023-04-01T14:09:29;17.60;71.40
19279;DHT22;9773;47.062;15.446;2023-04-01T14:12:10;17.60;70.60
19279;DHT22;9773;47.062;15.446;2023-04-01T14:20:41;17.30;70.00
19279;DHT22;9773;47.062;15.446;2023-04-01T14:23:30;17.20;70.60
19279;DHT22;9773;47.062;15.446;2023-04-01T14:32:02;17.20;70.70
19279;DHT22;9773;47.062;15.446;2023-04-01T14:34:44;17.20;71.30
19279;DHT22;9773;47.062;15.446;2023-04-01T14:45:55;17.30;69.40
19279;DHT22;9773;47.062;15.446;2023-04-01T14:48:50;17.20;69.20
19279;DHT22;9773;47.062;15.446;2023-04-01T14:51:31;17.30;70.20
19279;DHT22;9773;47.062;15.446;2023-04-01T14:56:44;17.20;69.80
19279;DHT22;9773;47.062;15.446;2023-04-01T15:02:09;17.10;69.70
19279;DHT22;9773;47.062;15.446;2023-04-01T15:05:13;17.20;69.50
19279;DHT22;9773;47.062;15.446;2023-04-01T15:07:56;17.20;69.50
19279;DHT22;9773;47.062;15.446;2023-04-01T15:21:10;17.00;70.30
19279;DHT22;9773;47.062;15.446;2023-04-01T15:24:07;17.00;70.40
19279;DHT22;9773;47.062;15.446;2023-04-01T15:30:01;16.90;71.00
19279;DHT22;9773;47.062;15.446;2023-04-01T15:40:46;16.60;71.70
19279;DHT22;9773;47.062;15.446;2023-04-01T15:43:22;16.60;70.90
19279;DHT22;9773;47.062;15.446;2023-04-01T15:45:56;16.60;70.30
19279;DHT22;9773;47.062;15.446;2023-04-01T15:50:57;16.70;69.50
19279;DHT22;9773;47.062;15.446;2023-04-01T15:56:45;16.80;70.40
19279;DHT22;9773;47.062;15.446;2023-04-01T16:09:26;16.60;72.00
19279;DHT22;9773;47.062;15.446;2023-04-01T16:12:04;16.50;71.20
19279;DHT22;9773;47.062;15.446;2023-04-01T16:20:20;16.20;71.30
19279;DHT22;9773;47.062;15.446;2023-04-01T16:22:55;16.10;71.10
19279;DHT22;9773;47.062;15.446;2023-04-01T16:25:39;16.10;71.10
19279;DHT22;9773;47.062;15.446;2023-04-01T16:30:50;15.70;71.20
19279;DHT22;9773;47.062;15.446;2023-04-01T16:33:27;15.70;72.30
19279;DHT22;9773;47.062;15.446;2023-04-01T16:36:08;15.60;72.60
19279;DHT22;9773;47.062;15.446;2023-04-01T16:39:06;15.60;73.00
19279;DHT22;9773;47.062;15.446;2023-04-01T16:42:16;15.50;71.90
19279;DHT22;9773;47.062;15.446;2023-04-01T16:44:25;15.40;71.90
19279;DHT22;9773;47.062;15.446;2023-04-01T16:47:12;15.40;72.50
19279;DHT22;9773;47.062;15.446;2023-04-01T16:50:30;15.40;72.60
19279;DHT22;9773;47.062;15.446;2023-04-01T16:53:14;15.40;72.30
19279;DHT22;9773;47.062;15.446;2023-04-01T16:55:50;15.40;73.30
19279;DHT22;9773;47.062;15.446;2023-04-01T16:58:42;15.30;72.80
19279;DHT22;9773;47.062;15.446;2023-04-01T17:01:19;15.30;73.60
19279;DHT22;9773;47.062;15.446;2023-04-01T17:03:53;15.20;73.10
19279;DHT22;9773;47.062;15.446;2023-04-01T17:06:37;15.20;73.10
19279;DHT22;9773;47.062;15.446;2023-04-01T17:12:17;15.20;73.90
19279;DHT22;9773;47.062;15.446;2023-04-01T17:21:02;15.10;74.50
19279;DHT22;9773;47.062;15.446;2023-04-01T17:26:11;15.00;75.10
19279;DHT22;9773;47.062;15.446;2023-04-01T17:42:41;14.60;76.90
19279;DHT22;9773;47.062;15.446;2023-04-01T17:50:50;14.50;77.10
19279;DHT22;9773;47.062;15.446;2023-04-01T17:56:28;14.40;77.80
19279;DHT22;9773;47.062;15.446;2023-04-01T18:10:17;14.30;79.70
19279;DHT22;9773;47.062;15.446;2023-04-01T18:18:43;14.10;80.80
19279;DHT22;9773;47.062;15.446;2023-04-01T18:27:03;14.20;79.50
19279;DHT22;9773;47.062;15.446;2023-04-01T18:29:53;14.20;79.80
19279;DHT22;9773;47.062;15.446;2023-04-01T18:32:36;14.10;80.00
19279;DHT22;9773;47.062;15.446;2023-04-01T18:38:25;14.20;80.60
19279;DHT22;9773;47.062;15.446;2023-04-01T18:49:25;14.00;82.30
19279;DHT22;9773;47.062;15.446;2023-04-01T18:51:58;14.00;83.00
19279;DHT22;9773;47.062;15.446;2023-04-01T18:55:14;14.00;83.20
19279;DHT22;9773;47.062;15.446;2023-04-01T18:57:48;13.90;84.40
19279;DHT22;9773;47.062;15.446;2023-04-01T19:00:25;13.90;84.30
19279;DHT22;9773;47.062;15.446;2023-04-01T19:03:34;13.80;85.20
19279;DHT22;9773;47.062;15.446;2023-04-01T19:05:43;13.70;85.10
19279;DHT22;9773;47.062;15.446;2023-04-01T19:08:27;13.70;85.30
19279;DHT22;9773;47.062;15.446;2023-04-01T19:11:04;13.60;85.30
19279;DHT22;9773;47.062;15.446;2023-04-01T19:13:55;13.60;85.50
19279;DHT22;9773;47.062;15.446;2023-04-01T19:26:53;13.80;85.70
19279;DHT22;9773;47.062;15.446;2023-04-01T19:29:47;13.70;85.60
19279;DHT22;9773;47.062;15.446;2023-04-01T19:38:38;13.60;85.20
19279;DHT22;9773;47.062;15.446;2023-04-01T19:47:19;13.40;86.10
19279;DHT22;9773;47.062;15.446;2023-04-01T19:52:53;13.30;87.70
19279;DHT22;9773;47.062;15.446;2023-04-01T19:56:12;13.20;87.80
19279;DHT22;9773;47.062;15.446;2023-04-01T20:01:33;13.20;87.90
19279;DHT22;9773;47.062;15.446;2023-04-01T22:00:38;11.00;97.50
19279;DHT22;9773;47.062;15.446;2023-04-01T22:09:10;11.20;97.70
19279;DHT22;9773;47.062;15.446;2023-04-01T22:11:46;11.40;97.70
19279;DHT22;9773;47.062;15.446;2023-04-01T22:14:33;11.50;97.50
19279;DHT22;9773;47.062;15.446;2023-04-01T22:22:35;11.60;97.40
19279;DHT22;9773;47.062;15.446;2023-04-01T22:25:15;11.60;97.30
19279;DHT22;9773;47.062;15.446;2023-04-01T22:30:45;11.70;97.30
19279;DHT22;9773;47.062;15.446;2023-04-01T22:33:19;11.70;97.10
19279;DHT22;9773;47.062;15.446;2023-04-01T22:35:54;11.70;97.40
19279;DHT22;9773;47.062;15.446;2023-04-01T22:41:21;11.70;97.30
19279;DHT22;9773;47.062;15.446;2023-04-01T22:43:54;11.70;97.30
19279;DHT22;9773;47.062;15.446;2023-04-01T22:46:55;11.70;97.60
19279;DHT22;9773;47.062;15.446;2023-04-01T22:49:41;11.70;97.60
19279;DHT22;9773;47.062;15.446;2023-04-01T22:52:31;11.60;97.50
19279;DHT22;9773;47.062;15.446;2023-04-01T22:55:15;11.60;97.50
19279;DHT22;9773;47.062;15.446;2023-04-01T22:57:48;11.60;97.40
19279;DHT22;9773;47.062;15.446;2023-04-01T23:00:45;11.60;97.50
19279;DHT22;9773;47.062;15.446;2023-04-01T23:03:22;11.60;97.50
19279;DHT22;9773;47.062;15.446;2023-04-01T23:05:56;11.50;97.70
19279;DHT22;9773;47.062;15.446;2023-04-01T23:11:02;11.60;97.90
19279;DHT22;9773;47.062;15.446;2023-04-01T23:13:34;11.50;97.80
19279;DHT22;9773;47.062;15.446;2023-04-01T23:16:04;11.50;97.60
19279;DHT22;9773;47.062;15.446;2023-04-01T23:18:49;11.50;97.70
19279;DHT22;9773;47.062;15.446;2023-04-01T23:21:39;11.40;98.00
19279;DHT22;9773;47.062;15.446;2023-04-01T23:27:59;11.30;98.10
19279;DHT22;9773;47.062;15.446;2023-04-01T23:29:51;11.10;98.20
19279;DHT22;9773;47.062;15.446;2023-04-01T23:32:25;11.10;98.30
19279;DHT22;9773;47.062;15.446;2023-04-01T23:34:53;10.90;98.40
19279;DHT22;9773;47.062;15.446;2023-04-01T23:37:21;11.00;98.50
19279;DHT22;9773;47.062;15.446;2023-04-01T23:39:54;11.00;98.50
19279;DHT22;9773;47.062;15.446;2023-04-01T23:42:28;11.00;98.50
19279;DHT22;9773;47.062;15.446;2023-04-01T23:45:00;10.90;98.60
19279;DHT22;9773;47.062;15.446;2023-04-01T23:47:33;10.90;98.80
19279;DHT22;9773;47.062;15.446;2023-04-01T23:50:10;10.90;98.60
19279;DHT22;9773;47.062;15.446;2023-04-01T23:52:42;10.90;98.70
